sensor_id;sensor_type;location;lat;lon;timestamp;pressure;altitude;pressure_sealevel;temperature;humidity
81686;BME280;71102;50.960;6.888;2024-01-15T00:02:15;100053.97;;;1.33;88.50
81686;BME280;71102;50.960;6.888;2024-01-15T00:04:41;100052.97;;;1.30;88.81
81686;BME280;71102;50.960;6.888;2024-01-15T00:07:07;100064.69;;;1.16;89.07
81686;BME280;71102;50.960;6.888;2024-01-15T00:09:32;100047.75;;;1.30;89.14
81686;BME280;71102;50.960;6.888;2024-01-15T00:11:59;100043.38;;;1.29;88.25
81686;BME280;71102;50.960;6.888;2024-01-15T00:14:24;100040.56;;;1.23;88.48
81686;BME280;71102;50.960;6.888;2024-01-15T00:16:50;100037.97;;;1.23;89.04
81686;BME280;71102;50.960;6.888;2024-01-15T00:19:15;100042.38;;;1.25;89.36
81686;BME280;71102;50.960;6.888;2024-01-15T00:21:41;100031.91;;;1.24;89.67
81686;BME280;71102;50.960;6.888;2024-01-15T00:24:06;100033.00;;;1.30;89.91
81686;BME280;71102;50.960;6.888;2024-01-15T00:26:31;100028.00;;;1.38;90.46
81686;BME280;71102;50.960;6.888;2024-01-15T00:28:57;100034.66;;;1.28;90.58
81686;BME280;71102;50.960;6.888;2024-01-15T00:31:22;100040.22;;;1.11;90.84
81686;BME280;71102;50.960;6.888;2024-01-15T00:33:47;100031.84;;;1.21;91.15
81686;BME280;71102;50.960;6.888;2024-01-15T00:36:12;100028.28;;;1.19;91.41
81686;BME280;71102;50.960;6.888;2024-01-15T00:38:38;100044.59;;;1.12;91.69
81686;BME280;71102;50.960;6.888;2024-01-15T00:41:03;100030.59;;;1.10;92.15
81686;BME280;71102;50.960;6.888;2024-01-15T00:43:29;100035.81;;;1.10;92.84
81686;BME280;71102;50.960;6.888;2024-01-15T00:45:54;100035.19;;;0.90;93.07
81686;BME280;71102;50.960;6.888;2024-01-15T00:48:19;100026.72;;;0.97;93.71
81686;BME280;71102;50.960;6.888;2024-01-15T00:50:45;100026.88;;;1.02;93.82
81686;BME280;71102;50.960;6.888;2024-01-15T00:53:10;100024.16;;;0.99;93.81
81686;BME280;71102;50.960;6.888;2024-01-15T00:55:35;100019.34;;;1.11;93.85
81686;BME280;71102;50.960;6.888;2024-01-15T00:58:01;100023.09;;;0.92;93.36
81686;BME280;71102;50.960;6.888;2024-01-15T01:00:26;100020.81;;;1.03;93.33
81686;BME280;71102;50.960;6.888;2024-01-15T01:02:51;100022.28;;;0.95;93.07
81686;BME280;71102;50.960;6.888;2024-01-15T01:05:17;100020.00;;;1.04;93.55
81686;BME280;71102;50.960;6.888;2024-01-15T01:07:42;100013.28;;;1.12;92.68
81686;BME280;71102;50.960;6.888;2024-01-15T01:10:08;100015.03;;;1.13;92.52
81686;BME280;71102;50.960;6.888;2024-01-15T01:12:33;100023.00;;;1.17;93.05
81686;BME280;71102;50.960;6.888;2024-01-15T01:14:58;100007.41;;;1.19;93.22
81686;BME280;71102;50.960;6.888;2024-01-15T01:17:24;100009.22;;;1.21;93.30
81686;BME280;71102;50.960;6.888;2024-01-15T01:19:50;100009.88;;;1.14;93.54
81686;BME280;71102;50.960;6.888;2024-01-15T01:22:15;100014.88;;;1.08;93.72
81686;BME280;71102;50.960;6.888;2024-01-15T01:24:41;99998.31;;;1.06;94.14
81686;BME280;71102;50.960;6.888;2024-01-15T01:27:06;100001.94;;;1.11;93.47
81686;BME280;71102;50.960;6.888;2024-01-15T01:29:31;100004.66;;;1.14;93.77
81686;BME280;71102;50.960;6.888;2024-01-15T01:31:57;100013.19;;;1.09;93.73
81686;BME280;71102;50.960;6.888;2024-01-15T01:34:22;99991.91;;;1.23;93.26
81686;BME280;71102;50.960;6.888;2024-01-15T01:36:47;99990.16;;;1.24;93.09
81686;BME280;71102;50.960;6.888;2024-01-15T01:39:13;99991.00;;;1.23;92.72
81686;BME280;71102;50.960;6.888;2024-01-15T01:41:39;99991.56;;;1.13;92.94
81686;BME280;71102;50.960;6.888;2024-01-15T01:44:04;99995.22;;;1.18;93.23
81686;BME280;71102;50.960;6.888;2024-01-15T01:46:30;99988.28;;;1.20;93.26
81686;BME280;71102;50.960;6.888;2024-01-15T01:48:56;99997.91;;;1.21;93.01
81686;BME280;71102;50.960;6.888;2024-01-15T01:51:23;99990.16;;;1.24;92.08
81686;BME280;71102;50.960;6.888;2024-01-15T01:53:50;99989.50;;;1.31;91.97
81686;BME280;71102;50.960;6.888;2024-01-15T01:56:16;99988.72;;;1.33;92.15
81686;BME280;71102;50.960;6.888;2024-01-15T01:58:43;99985.97;;;1.29;91.35
81686;BME280;71102;50.960;6.888;2024-01-15T02:01:09;99980.31;;;1.43;91.43
81686;BME280;71102;50.960;6.888;2024-01-15T02:03:35;99983.72;;;1.41;91.37
81686;BME280;71102;50.960;6.888;2024-01-15T02:06:01;99989.78;;;1.40;90.23
81686;BME280;71102;50.960;6.888;2024-01-15T02:08:26;99992.38;;;1.40;90.62
81686;BME280;71102;50.960;6.888;2024-01-15T02:10:51;99988.88;;;1.38;90.70
81686;BME280;71102;50.960;6.888;2024-01-15T02:13:17;99995.72;;;1.34;91.06
81686;BME280;71102;50.960;6.888;2024-01-15T02:15:43;99992.03;;;1.28;91.16
81686;BME280;71102;50.960;6.888;2024-01-15T02:18:09;99995.47;;;1.27;91.14
81686;BME280;71102;50.960;6.888;2024-01-15T02:20:34;99993.81;;;1.29;91.55
81686;BME280;71102;50.960;6.888;2024-01-15T02:23:09;99989.03;;;1.44;91.16
81686;BME280;71102;50.960;6.888;2024-01-15T02:25:36;100001.97;;;1.41;90.78
81686;BME280;71102;50.960;6.888;2024-01-15T02:28:02;99995.72;;;1.34;91.19
81686;BME280;71102;50.960;6.888;2024-01-15T02:30:28;99992.19;;;1.34;91.65
81686;BME280;71102;50.960;6.888;2024-01-15T02:32:55;99985.41;;;1.39;91.34
81686;BME280;71102;50.960;6.888;2024-01-15T02:35:20;99987.72;;;1.30;91.61
81686;BME280;71102;50.960;6.888;2024-01-15T02:37:45;99988.53;;;1.27;91.90
81686;BME280;71102;50.960;6.888;2024-01-15T02:40:11;100004.25;;;1.29;90.76
81686;BME280;71102;50.960;6.888;2024-01-15T02:42:36;99987.06;;;1.37;90.94
81686;BME280;71102;50.960;6.888;2024-01-15T02:45:02;99982.91;;;1.42;90.91
81686;BME280;71102;50.960;6.888;2024-01-15T02:47:28;99995.94;;;1.42;90.43
81686;BME280;71102;50.960;6.888;2024-01-15T02:49:53;99987.34;;;1.46;90.07
81686;BME280;71102;50.960;6.888;2024-01-15T02:52:19;99986.25;;;1.38;91.26
81686;BME280;71102;50.960;6.888;2024-01-15T02:54:44;99984.59;;;1.41;90.10
81686;BME280;71102;50.960;6.888;2024-01-15T02:57:09;99984.56;;;1.40;90.14
81686;BME280;71102;50.960;6.888;2024-01-15T02:59:35;100002.16;;;1.47;89.85
81686;BME280;71102;50.960;6.888;2024-01-15T03:02:00;100000.25;;;1.41;89.99
81686;BME280;71102;50.960;6.888;2024-01-15T03:04:25;99991.53;;;1.41;89.87
81686;BME280;71102;50.960;6.888;2024-01-15T03:06:51;100008.03;;;1.40;90.64
81686;BME280;71102;50.960;6.888;2024-01-15T03:09:16;100005.34;;;1.37;89.90
81686;BME280;71102;50.960;6.888;2024-01-15T03:11:41;100008.69;;;1.33;90.24
81686;BME280;71102;50.960;6.888;2024-01-15T03:14:07;100001.69;;;1.30;90.10
81686;BME280;71102;50.960;6.888;2024-01-15T03:16:32;100010.59;;;1.38;90.39
81686;BME280;71102;50.960;6.888;2024-01-15T03:18:57;99997.56;;;1.38;90.52
81686;BME280;71102;50.960;6.888;2024-01-15T03:21:23;100006.09;;;1.33;90.02
81686;BME280;71102;50.960;6.888;2024-01-15T03:23:48;100002.47;;;1.28;90.51
81686;BME280;71102;50.960;6.888;2024-01-15T03:26:13;99995.94;;;1.42;89.82
81686;BME280;71102;50.960;6.888;2024-01-15T03:28:39;99990.91;;;1.48;89.96
81686;BME280;71102;50.960;6.888;2024-01-15T03:31:04;99995.19;;;1.46;89.90
81686;BME280;71102;50.960;6.888;2024-01-15T03:33:29;99992.47;;;1.43;89.80
81686;BME280;71102;50.960;6.888;2024-01-15T03:35:55;100003.19;;;1.52;90.19
81686;BME280;71102;50.960;6.888;2024-01-15T03:38:20;99988.13;;;1.42;89.83
81686;BME280;71102;50.960;6.888;2024-01-15T03:40:45;99991.59;;;1.42;90.01
81686;BME280;71102;50.960;6.888;2024-01-15T03:43:10;99995.28;;;1.49;90.29
81686;BME280;71102;50.960;6.888;2024-01-15T03:45:36;99996.13;;;1.49;89.83
81686;BME280;71102;50.960;6.888;2024-01-15T03:48:01;99999.75;;;1.53;89.22
81686;BME280;71102;50.960;6.888;2024-01-15T03:50:27;99990.91;;;1.48;89.61
81686;BME280;71102;50.960;6.888;2024-01-15T03:52:52;99989.81;;;1.41;90.64
81686;BME280;71102;50.960;6.888;2024-01-15T03:55:17;99979.38;;;1.41;90.85
81686;BME280;71102;50.960;6.888;2024-01-15T03:57:42;99980.31;;;1.43;90.21
81686;BME280;71102;50.960;6.888;2024-01-15T04:00:08;99991.25;;;1.60;90.26
81686;BME280;71102;50.960;6.888;2024-01-15T04:02:34;99993.00;;;1.61;90.09
81686;BME280;71102;50.960;6.888;2024-01-15T04:04:59;99992.91;;;1.58;90.30
81686;BME280;71102;50.960;6.888;2024-01-15T04:07:24;99981.84;;;1.65;89.45
81686;BME280;71102;50.960;6.888;2024-01-15T04:09:50;99986.31;;;1.69;89.63
81686;BME280;71102;50.960;6.888;2024-01-15T04:12:15;99978.56;;;1.72;89.53
81686;BME280;71102;50.960;6.888;2024-01-15T04:14:40;99980.19;;;1.68;89.01
81686;BME280;71102;50.960;6.888;2024-01-15T04:17:06;99968.84;;;1.68;89.36
81686;BME280;71102;50.960;6.888;2024-01-15T04:19:31;99976.47;;;1.60;89.86
81686;BME280;71102;50.960;6.888;2024-01-15T04:21:56;99979.22;;;1.65;89.72
81686;BME280;71102;50.960;6.888;2024-01-15T04:24:22;99968.69;;;1.62;89.50
81686;BME280;71102;50.960;6.888;2024-01-15T04:26:47;99963.19;;;1.53;89.67
81686;BME280;71102;50.960;6.888;2024-01-15T04:29:12;99970.44;;;1.63;88.90
81686;BME280;71102;50.960;6.888;2024-01-15T04:31:38;99960.09;;;1.66;89.34
81686;BME280;71102;50.960;6.888;2024-01-15T04:34:03;99955.06;;;1.72;88.73
81686;BME280;71102;50.960;6.888;2024-01-15T04:36:28;99957.06;;;1.82;88.69
81686;BME280;71102;50.960;6.888;2024-01-15T04:38:54;99943.88;;;1.77;88.17
81686;BME280;71102;50.960;6.888;2024-01-15T04:41:19;99943.09;;;1.80;88.58
81686;BME280;71102;50.960;6.888;2024-01-15T04:43:44;99938.72;;;1.79;89.08
81686;BME280;71102;50.960;6.888;2024-01-15T04:46:10;99947.38;;;1.78;88.05
81686;BME280;71102;50.960;6.888;2024-01-15T04:48:35;99945.59;;;1.77;88.58
81686;BME280;71102;50.960;6.888;2024-01-15T04:51:01;99950.88;;;1.78;88.06
81686;BME280;71102;50.960;6.888;2024-01-15T04:53:28;99942.16;;;1.78;88.08
81686;BME280;71102;50.960;6.888;2024-01-15T04:55:54;99943.16;;;1.83;88.56
81686;BME280;71102;50.960;6.888;2024-01-15T04:58:19;99936.09;;;1.79;88.78
81686;BME280;71102;50.960;6.888;2024-01-15T05:00:44;99940.66;;;1.86;88.39
81686;BME280;71102;50.960;6.888;2024-01-15T05:03:10;99938.53;;;1.73;89.00
81686;BME280;71102;50.960;6.888;2024-01-15T05:05:35;99936.09;;;1.79;89.18
81686;BME280;71102;50.960;6.888;2024-01-15T05:08:00;99937.94;;;1.83;88.68
81686;BME280;71102;50.960;6.888;2024-01-15T05:10:26;99933.97;;;1.97;88.68
81686;BME280;71102;50.960;6.888;2024-01-15T05:12:51;99933.03;;;1.95;88.23
81686;BME280;71102;50.960;6.888;2024-01-15T05:15:16;99921.84;;;1.99;87.50
81686;BME280;71102;50.960;6.888;2024-01-15T05:17:42;99923.47;;;1.95;87.79
81686;BME280;71102;50.960;6.888;2024-01-15T05:20:07;99927.59;;;1.86;87.97
81686;BME280;71102;50.960;6.888;2024-01-15T05:22:33;99928.53;;;1.89;87.91
81686;BME280;71102;50.960;6.888;2024-01-15T05:24:58;99937.25;;;1.90;87.96
81686;BME280;71102;50.960;6.888;2024-01-15T05:27:23;99934.25;;;1.76;88.32
81686;BME280;71102;50.960;6.888;2024-01-15T05:29:49;99928.34;;;1.82;88.10
81686;BME280;71102;50.960;6.888;2024-01-15T05:32:14;99928.69;;;1.95;88.71
81686;BME280;71102;50.960;6.888;2024-01-15T05:34:39;99920.44;;;1.79;88.04
81686;BME280;71102;50.960;6.888;2024-01-15T05:37:05;99919.78;;;1.87;88.45
81686;BME280;71102;50.960;6.888;2024-01-15T05:39:30;99924.22;;;1.90;88.66
81686;BME280;71102;50.960;6.888;2024-01-15T05:41:55;99924.94;;;1.84;88.50
81686;BME280;71102;50.960;6.888;2024-01-15T05:44:21;99919.16;;;1.96;87.89
81686;BME280;71102;50.960;6.888;2024-01-15T05:46:46;99915.78;;;2.00;88.36
81686;BME280;71102;50.960;6.888;2024-01-15T05:49:11;99924.94;;;1.84;88.38
81686;BME280;71102;50.960;6.888;2024-01-15T05:51:37;99930.28;;;1.89;88.53
81686;BME280;71102;50.960;6.888;2024-01-15T05:54:02;99920.00;;;1.96;88.07
81686;BME280;71102;50.960;6.888;2024-01-15T05:56:27;99914.16;;;2.05;87.70
81686;BME280;71102;50.960;6.888;2024-01-15T05:58:53;99911.53;;;2.05;87.18
81686;BME280;71102;50.960;6.888;2024-01-15T06:01:18;99905.63;;;2.12;87.48
81686;BME280;71102;50.960;6.888;2024-01-15T06:03:43;99907.94;;;2.00;88.15
81686;BME280;71102;50.960;6.888;2024-01-15T06:06:09;99909.59;;;1.98;88.31
81686;BME280;71102;50.960;6.888;2024-01-15T06:08:34;99906.91;;;1.95;88.32
81686;BME280;71102;50.960;6.888;2024-01-15T06:10:59;99917.78;;;2.10;87.48
81686;BME280;71102;50.960;6.888;2024-01-15T06:13:25;99907.84;;;1.97;88.92
81686;BME280;71102;50.960;6.888;2024-01-15T06:15:50;99901.69;;;1.95;88.52
81686;BME280;71102;50.960;6.888;2024-01-15T06:18:15;99901.03;;;2.03;87.98
81686;BME280;71102;50.960;6.888;2024-01-15T06:20:41;99896.53;;;1.98;88.87
81686;BME280;71102;50.960;6.888;2024-01-15T06:23:06;99903.41;;;1.93;88.79
81686;BME280;71102;50.960;6.888;2024-01-15T06:25:31;99894.53;;;1.88;88.99
81686;BME280;71102;50.960;6.888;2024-01-15T06:27:57;99900.81;;;1.94;89.44
81686;BME280;71102;50.960;6.888;2024-01-15T06:30:22;99903.22;;;1.87;89.30
81686;BME280;71102;50.960;6.888;2024-01-15T06:32:47;99895.25;;;1.82;89.22
81686;BME280;71102;50.960;6.888;2024-01-15T06:35:13;99892.00;;;1.91;89.25
81686;BME280;71102;50.960;6.888;2024-01-15T06:37:38;99889.56;;;1.97;88.94
81686;BME280;71102;50.960;6.888;2024-01-15T06:40:04;99894.78;;;1.97;88.92
81686;BME280;71102;50.960;6.888;2024-01-15T06:42:29;99888.84;;;2.02;88.63
81686;BME280;71102;50.960;6.888;2024-01-15T06:44:54;99887.25;;;2.09;89.50
81686;BME280;71102;50.960;6.888;2024-01-15T06:47:20;99898.94;;;2.23;89.03
81686;BME280;71102;50.960;6.888;2024-01-15T06:49:45;99876.50;;;2.31;88.52
81686;BME280;71102;50.960;6.888;2024-01-15T06:52:10;99890.19;;;2.21;88.36
81686;BME280;71102;50.960;6.888;2024-01-15T06:54:36;99880.50;;;2.17;88.48
81686;BME280;71102;50.960;6.888;2024-01-15T06:57:01;99873.59;;;2.20;88.49
81686;BME280;71102;50.960;6.888;2024-01-15T06:59:26;99869.97;;;2.14;89.76
81686;BME280;71102;50.960;6.888;2024-01-15T07:01:52;99877.28;;;1.93;89.76
81686;BME280;71102;50.960;6.888;2024-01-15T07:04:17;99882.88;;;2.08;89.03
81686;BME280;71102;50.960;6.888;2024-01-15T07:06:42;99885.44;;;2.06;89.02
81686;BME280;71102;50.960;6.888;2024-01-15T07:09:08;99886.41;;;2.10;89.04
81686;BME280;71102;50.960;6.888;2024-01-15T07:11:33;99888.94;;;2.07;88.31
81686;BME280;71102;50.960;6.888;2024-01-15T07:13:58;99889.66;;;2.00;88.81
81686;BME280;71102;50.960;6.888;2024-01-15T07:16:24;99882.50;;;1.93;89.39
81686;BME280;71102;50.960;6.888;2024-01-15T07:18:49;99884.41;;;2.00;89.18
81686;BME280;71102;50.960;6.888;2024-01-15T07:21:14;99879.19;;;2.00;88.72
81686;BME280;71102;50.960;6.888;2024-01-15T07:23:40;99887.63;;;1.90;89.70
81686;BME280;71102;50.960;6.888;2024-01-15T07:26:05;99886.00;;;1.95;89.44
81686;BME280;71102;50.960;6.888;2024-01-15T07:28:31;99879.03;;;1.94;89.49
81686;BME280;71102;50.960;6.888;2024-01-15T07:30:57;99879.19;;;2.00;88.70
81686;BME280;71102;50.960;6.888;2024-01-15T07:33:22;99886.09;;;1.98;89.22
81686;BME280;71102;50.960;6.888;2024-01-15T07:35:47;99885.28;;;2.00;88.91
81686;BME280;71102;50.960;6.888;2024-01-15T07:38:13;99878.31;;;1.99;88.81
81686;BME280;71102;50.960;6.888;2024-01-15T07:40:38;99875.72;;;2.01;88.44
81686;BME280;71102;50.960;6.888;2024-01-15T07:43:03;99878.22;;;1.96;88.58
81686;BME280;71102;50.960;6.888;2024-01-15T07:45:30;99886.69;;;1.88;89.33
81686;BME280;71102;50.960;6.888;2024-01-15T07:47:55;99884.25;;;1.94;89.39
81686;BME280;71102;50.960;6.888;2024-01-15T07:50:21;99888.06;;;2.06;88.05
81686;BME280;71102;50.960;6.888;2024-01-15T07:52:46;99886.41;;;2.10;87.37
81686;BME280;71102;50.960;6.888;2024-01-15T07:55:11;99888.34;;;2.17;87.65
81686;BME280;71102;50.960;6.888;2024-01-15T07:57:37;99879.50;;;2.12;87.38
81686;BME280;71102;50.960;6.888;2024-01-15T08:00:03;99885.88;;;2.23;87.04
81686;BME280;71102;50.960;6.888;2024-01-15T08:02:30;99881.28;;;2.13;87.03
81686;BME280;71102;50.960;6.888;2024-01-15T08:04:55;99883.13;;;2.17;86.37
81686;BME280;71102;50.960;6.888;2024-01-15T08:07:21;99884.19;;;2.25;86.51
81686;BME280;71102;50.960;6.888;2024-01-15T08:09:46;99877.00;;;2.16;86.45
81686;BME280;71102;50.960;6.888;2024-01-15T08:12:11;99876.34;;;2.25;86.52
81686;BME280;71102;50.960;6.888;2024-01-15T08:14:37;99880.69;;;2.24;86.82
81686;BME280;71102;50.960;6.888;2024-01-15T08:17:02;99884.88;;;2.18;86.37
81686;BME280;71102;50.960;6.888;2024-01-15T08:19:27;99868.69;;;2.32;86.60
81686;BME280;71102;50.960;6.888;2024-01-15T08:21:52;99872.28;;;2.37;85.97
81686;BME280;71102;50.960;6.888;2024-01-15T08:24:18;99871.56;;;2.43;85.54
81686;BME280;71102;50.960;6.888;2024-01-15T08:26:43;99870.63;;;2.41;85.28
81686;BME280;71102;50.960;6.888;2024-01-15T08:29:09;99878.13;;;2.26;86.02
81686;BME280;71102;50.960;6.888;2024-01-15T08:31:34;99871.31;;;2.32;85.54
81686;BME280;71102;50.960;6.888;2024-01-15T08:33:59;99868.69;;;2.32;85.67
81686;BME280;71102;50.960;6.888;2024-01-15T08:36:25;99867.75;;;2.30;85.79
81686;BME280;71102;50.960;6.888;2024-01-15T08:38:50;99867.88;;;2.35;85.65
81686;BME280;71102;50.960;6.888;2024-01-15T08:41:16;99867.00;;;2.34;86.09
81686;BME280;71102;50.960;6.888;2024-01-15T08:43:41;99872.28;;;2.37;85.63
81686;BME280;71102;50.960;6.888;2024-01-15T08:46:06;99864.03;;;2.21;86.52
81686;BME280;71102;50.960;6.888;2024-01-15T08:48:32;99853.19;;;2.40;85.75
81686;BME280;71102;50.960;6.888;2024-01-15T08:50:57;99862.06;;;2.11;86.95
81686;BME280;71102;50.960;6.888;2024-01-15T08:53:23;99869.44;;;2.27;86.11
81686;BME280;71102;50.960;6.888;2024-01-15T08:55:48;99858.13;;;2.28;86.40
81686;BME280;71102;50.960;6.888;2024-01-15T08:58:14;99866.22;;;2.38;86.03
81686;BME280;71102;50.960;6.888;2024-01-15T09:00:39;99858.50;;;2.44;86.44
81686;BME280;71102;50.960;6.888;2024-01-15T09:03:04;99864.34;;;2.33;86.75
81686;BME280;71102;50.960;6.888;2024-01-15T09:05:30;99856.56;;;2.36;85.77
81686;BME280;71102;50.960;6.888;2024-01-15T09:07:56;99872.97;;;2.30;86.48
81686;BME280;71102;50.960;6.888;2024-01-15T09:10:21;99866.69;;;2.22;86.54
81686;BME280;71102;50.960;6.888;2024-01-15T09:12:46;99866.16;;;2.35;86.66
81686;BME280;71102;50.960;6.888;2024-01-15T09:15:12;99878.91;;;2.23;86.45
81686;BME280;71102;50.960;6.888;2024-01-15T09:17:38;99872.09;;;2.28;87.43
81686;BME280;71102;50.960;6.888;2024-01-15T09:20:04;99882.78;;;2.05;88.39
81686;BME280;71102;50.960;6.888;2024-01-15T09:22:29;99882.78;;;2.05;87.92
81686;BME280;71102;50.960;6.888;2024-01-15T09:24:55;99888.78;;;2.01;88.64
81686;BME280;71102;50.960;6.888;2024-01-15T09:27:20;99886.25;;;2.04;88.97
81686;BME280;71102;50.960;6.888;2024-01-15T09:29:46;99884.59;;;2.06;88.51
81686;BME280;71102;50.960;6.888;2024-01-15T09:32:11;99892.88;;;1.90;89.53
81686;BME280;71102;50.960;6.888;2024-01-15T09:34:37;99894.78;;;1.97;89.32
81686;BME280;71102;50.960;6.888;2024-01-15T09:37:02;99893.31;;;2.08;89.12
81686;BME280;71102;50.960;6.888;2024-01-15T09:39:28;99892.19;;;1.97;89.58
81686;BME280;71102;50.960;6.888;2024-01-15T09:41:54;99906.81;;;1.92;89.52
81686;BME280;71102;50.960;6.888;2024-01-15T09:44:20;99899.63;;;1.82;89.62
81686;BME280;71102;50.960;6.888;2024-01-15T09:46:46;99908.69;;;1.96;89.80
81686;BME280;71102;50.960;6.888;2024-01-15T09:49:12;99904.22;;;1.90;89.81
81686;BME280;71102;50.960;6.888;2024-01-15T09:51:38;99908.91;;;1.72;89.43
81686;BME280;71102;50.960;6.888;2024-01-15T09:54:04;99918.56;;;1.75;89.88
81686;BME280;71102;50.960;6.888;2024-01-15T09:56:30;99917.22;;;1.58;91.39
81686;BME280;71102;50.960;6.888;2024-01-15T09:58:57;99925.31;;;1.67;90.76
81686;BME280;71102;50.960;6.888;2024-01-15T10:01:23;99919.22;;;1.68;91.35
81686;BME280;71102;50.960;6.888;2024-01-15T10:03:49;99917.28;;;1.61;91.47
81686;BME280;71102;50.960;6.888;2024-01-15T10:06:16;99927.88;;;1.65;90.75
81686;BME280;71102;50.960;6.888;2024-01-15T10:08:43;99918.56;;;1.75;91.07
81686;BME280;71102;50.960;6.888;2024-01-15T10:11:12;99933.41;;;1.76;91.53
81686;BME280;71102;50.960;6.888;2024-01-15T10:13:38;99948.22;;;1.77;90.64
81686;BME280;71102;50.960;6.888;2024-01-15T10:16:04;99918.59;;;1.76;90.83
81686;BME280;71102;50.960;6.888;2024-01-15T10:18:29;99915.34;;;1.85;91.01
81686;BME280;71102;50.960;6.888;2024-01-15T10:20:56;99925.31;;;1.67;91.10
81686;BME280;71102;50.960;6.888;2024-01-15T10:23:22;99922.47;;;1.59;91.72
81686;BME280;71102;50.960;6.888;2024-01-15T10:25:47;99927.91;;;1.67;91.31
81686;BME280;71102;50.960;6.888;2024-01-15T10:28:13;99929.38;;;1.88;91.24
81686;BME280;71102;50.960;6.888;2024-01-15T10:30:38;99929.44;;;1.90;90.23
81686;BME280;71102;50.960;6.888;2024-01-15T10:33:04;99939.97;;;1.93;90.30
81686;BME280;71102;50.960;6.888;2024-01-15T10:35:33;99930.97;;;1.83;89.82
81686;BME280;71102;50.960;6.888;2024-01-15T10:38:02;99929.25;;;1.84;90.63
81686;BME280;71102;50.960;6.888;2024-01-15T10:40:28;99921.25;;;1.78;90.51
81686;BME280;71102;50.960;6.888;2024-01-15T10:42:54;99926.19;;;1.67;90.50
81686;BME280;71102;50.960;6.888;2024-01-15T10:45:19;99940.28;;;1.74;90.98
81686;BME280;71102;50.960;6.888;2024-01-15T10:47:45;99939.88;;;1.90;90.90
81686;BME280;71102;50.960;6.888;2024-01-15T10:50:10;99929.91;;;1.75;90.55
81686;BME280;71102;50.960;6.888;2024-01-15T10:52:37;99927.97;;;1.68;91.33
81686;BME280;71102;50.960;6.888;2024-01-15T10:55:03;99920.34;;;1.76;91.22
81686;BME280;71102;50.960;6.888;2024-01-15T10:57:29;99925.38;;;1.70;91.03
81686;BME280;71102;50.960;6.888;2024-01-15T10:59:54;99933.94;;;1.64;91.54
81686;BME280;71102;50.960;6.888;2024-01-15T11:02:20;99925.03;;;1.58;92.08
81686;BME280;71102;50.960;6.888;2024-01-15T11:04:46;99934.25;;;1.76;90.80
81686;BME280;71102;50.960;6.888;2024-01-15T11:07:13;99923.22;;;1.86;90.59
81686;BME280;71102;50.960;6.888;2024-01-15T11:09:39;99922.28;;;1.83;90.15
81686;BME280;71102;50.960;6.888;2024-01-15T11:12:10;99928.25;;;1.79;90.57
81686;BME280;71102;50.960;6.888;2024-01-15T11:14:46;99921.38;;;1.82;90.43
81686;BME280;71102;50.960;6.888;2024-01-15T11:17:12;99929.91;;;1.75;91.31
81686;BME280;71102;50.960;6.888;2024-01-15T11:22:11;99935.16;;;2.09;89.56
81686;BME280;71102;50.960;6.888;2024-01-15T11:25:17;99918.59;;;2.07;89.41
81686;BME280;71102;50.960;6.888;2024-01-15T11:27:50;99928.41;;;2.17;88.99
81686;BME280;71102;50.960;6.888;2024-01-15T11:30:15;99927.91;;;2.32;88.85
81686;BME280;71102;50.960;6.888;2024-01-15T11:32:41;99923.84;;;2.43;88.68
81686;BME280;71102;50.960;6.888;2024-01-15T11:35:07;99932.13;;;2.25;89.28
81686;BME280;71102;50.960;6.888;2024-01-15T11:37:56;99932.00;;;2.21;89.59
81686;BME280;71102;50.960;6.888;2024-01-15T11:40:35;99940.59;;;2.17;88.51
81686;BME280;71102;50.960;6.888;2024-01-15T11:43:02;99933.00;;;2.26;89.97
81686;BME280;71102;50.960;6.888;2024-01-15T11:45:28;99942.41;;;2.19;88.92
81686;BME280;71102;50.960;6.888;2024-01-15T11:48:14;99934.03;;;2.32;89.20
81686;BME280;71102;50.960;6.888;2024-01-15T11:50:44;99940.06;;;2.30;89.31
81686;BME280;71102;50.960;6.888;2024-01-15T11:53:17;99939.13;;;2.28;88.97
81686;BME280;71102;50.960;6.888;2024-01-15T11:55:44;99941.53;;;2.20;88.72
81686;BME280;71102;50.960;6.888;2024-01-15T11:58:10;99944.84;;;2.13;87.94
81686;BME280;71102;50.960;6.888;2024-01-15T12:00:48;99935.34;;;2.15;88.72
81686;BME280;71102;50.960;6.888;2024-01-15T12:03:13;99942.28;;;2.15;88.91
81686;BME280;71102;50.960;6.888;2024-01-15T12:05:39;99928.22;;;2.10;88.80
81686;BME280;71102;50.960;6.888;2024-01-15T12:08:05;99923.53;;;2.31;87.71
81686;BME280;71102;50.960;6.888;2024-01-15T12:10:30;99930.34;;;2.58;86.72
81686;BME280;71102;50.960;6.888;2024-01-15T12:13:00;99934.19;;;2.74;86.11
81686;BME280;71102;50.960;6.888;2024-01-15T12:15:30;99921.41;;;3.68;83.85
81686;BME280;71102;50.960;6.888;2024-01-15T12:17:56;99928.47;;;4.18;80.93
81686;BME280;71102;50.960;6.888;2024-01-15T12:20:23;99913.53;;;4.64;78.72
81686;BME280;71102;50.960;6.888;2024-01-15T12:22:49;99915.81;;;4.42;77.50
81686;BME280;71102;50.960;6.888;2024-01-15T12:25:14;99912.97;;;4.31;78.54
81686;BME280;71102;50.960;6.888;2024-01-15T12:27:40;99920.13;;;3.92;81.14
81686;BME280;71102;50.960;6.888;2024-01-15T12:30:05;99920.34;;;3.60;80.12
81686;BME280;71102;50.960;6.888;2024-01-15T12:32:31;99916.94;;;3.62;81.90
81686;BME280;71102;50.960;6.888;2024-01-15T12:34:56;99922.94;;;3.58;82.01
81686;BME280;71102;50.960;6.888;2024-01-15T12:37:22;99918.31;;;3.44;81.38
81686;BME280;71102;50.960;6.888;2024-01-15T12:39:47;99922.31;;;3.27;81.47
81686;BME280;71102;50.960;6.888;2024-01-15T12:42:16;99920.16;;;3.09;83.29
81686;BME280;71102;50.960;6.888;2024-01-15T12:44:42;99917.22;;;2.94;82.88
81686;BME280;71102;50.960;6.888;2024-01-15T12:47:08;99931.84;;;2.86;83.30
81686;BME280;71102;50.960;6.888;2024-01-15T12:49:36;99923.88;;;2.82;82.96
81686;BME280;71102;50.960;6.888;2024-01-15T12:52:01;99926.84;;;2.95;82.31
81686;BME280;71102;50.960;6.888;2024-01-15T12:54:27;99935.94;;;3.52;80.59
81686;BME280;71102;50.960;6.888;2024-01-15T12:56:52;99929.25;;;3.66;80.17
81686;BME280;71102;50.960;6.888;2024-01-15T12:59:18;99928.94;;;3.53;79.99
81686;BME280;71102;50.960;6.888;2024-01-15T13:01:44;99943.50;;;3.39;79.81
81686;BME280;71102;50.960;6.888;2024-01-15T13:04:10;99933.16;;;3.45;80.41
81686;BME280;71102;50.960;6.888;2024-01-15T13:06:35;99936.00;;;3.15;81.22